Time;durP1;ratioP1;P1;durP2;ratioP2;P2;SDS_P1;SDS_P2;PMS_P1;PMS_P2;Temp;Humidity;BMP_temperature;BMP_pressure;BME280_temperature;BME280_humidity;BME280_pressure;Samples;Min_cycle;Max_cycle;Signal;HPM_P1;HPM_P2
2022/10/17 00:01:02;;;;;;;25.83;14.45;;;;;;;10.46;100.00;101797.78;12902275;22;20054;-87
2022/10/17 00:06:08;;;;;;;32.03;12.07;;;;;;;9.73;100.00;101642.63;12927364;22;20028;-87
2022/10/17 00:11:14;;;;;;;33.93;12.77;;;;;;;10.38;100.00;101745.78;12903815;22;20067;-86
2022/10/17 00:16:17;;;;;;;22.77;11.20;;;;;;;10.32;100.00;101724.69;12929109;22;20010;-86
2022/10/17 00:21:18;;;;;;;20.33;8.65;;;;;;;10.24;100.00;101679.84;12903620;22;20021;-87
2022/10/17 00:26:22;;;;;;;28.88;8.77;;;;;;;9.55;100.00;101561.03;12874625;22;20049;-86
2022/10/17 00:31:23;;;;;;;28.30;8.98;;;;;;;10.22;100.00;101654.47;12770804;22;20003;-85
2022/10/17 00:36:24;;;;;;;26.23;7.88;;;;;;;11.07;100.00;101790.34;12901210;22;20359;-87
2022/10/17 00:41:30;;;;;;;21.27;7.70;;;;;;;10.31;100.00;101655.03;12903072;22;20000;-87
2022/10/17 00:46:35;;;;;;;18.13;6.85;;;;;;;9.96;100.00;101606.16;12911810;22;20090;-87
2022/10/17 00:51:40;;;;;;;15.65;7.25;;;;;;;10.41;100.00;101637.94;12860067;22;20007;-85
2022/10/17 00:56:41;;;;;;;20.27;11.30;;;;;;;9.96;100.00;101577.81;12918865;22;20084;-85
2022/10/17 01:01:43;;;;;;;23.40;13.98;;;;;;;11.31;100.00;101758.19;12899759;22;20081;-85
2022/10/17 01:06:44;;;;;;;26.52;13.98;;;;;;;10.51;100.00;101646.47;12922289;22;20038;-85
2022/10/17 01:11:55;;;;;;;30.02;15.43;;;;;;;10.98;100.00;101701.69;12925510;22;20004;-85
2022/10/17 01:17:25;;;;;;;21.02;12.00;;;;;;;11.45;100.00;101744.97;12847727;22;20011;-85
2022/10/17 01:22:30;;;;;;;17.38;8.75;;;;;;;9.81;100.00;101498.47;12834481;22;20004;-87
2022/10/17 01:28:03;;;;;;;18.65;9.15;;;;;;;10.91;100.00;101640.31;12876063;22;20032;-85
2022/10/17 01:33:30;;;;;;;14.45;9.13;;;;;;;10.71;100.00;101596.59;12943609;22;20008;-85
2022/10/17 01:38:36;;;;;;;17.45;9.32;;;;;;;10.60;100.00;101589.97;12901455;22;20080;-84
2022/10/17 01:43:40;;;;;;;15.63;11.07;;;;;;;10.35;100.00;101523.28;12898929;22;20053;-85
2022/10/17 01:48:41;;;;;;;26.95;13.70;;;;;;;10.95;100.00;101586.44;12924660;22;20038;-85
2022/10/17 01:53:46;;;;;;;21.50;12.27;;;;;;;11.17;100.00;101594.09;12900751;22;20068;-85
2022/10/17 01:58:50;;;;;;;20.38;10.13;;;;;;;11.13;100.00;101587.41;12900122;22;20007;-84
2022/10/17 02:03:50;;;;;;;17.27;9.63;;;;;;;11.17;100.00;101588.59;12881064;22;20015;-85
2022/10/17 02:08:51;;;;;;;15.73;8.55;;;;;;;10.85;100.00;101536.59;12898091;22;20023;-85
2022/10/17 02:14:10;;;;;;;13.07;8.77;;;;;;;11.78;100.00;101683.72;12923345;22;20088;-85
2022/10/17 02:19:51;;;;;;;10.38;7.90;;;;;;;10.11;100.00;101393.91;12926223;22;20000;-86
2022/10/17 02:24:53;;;;;;;;;;;;;;;11.57;100.00;101642.97;12916319;22;20112;-85
2022/10/17 02:30:07;;;;;;;12.02;8.40;;;;;;;11.10;100.00;101622.63;12924115;22;19903;-85
2022/10/17 02:35:08;;;;;;;15.70;8.95;;;;;;;10.25;100.00;101472.41;12901042;22;20008;-86
2022/10/17 02:40:09;;;;;;;16.80;9.35;;;;;;;10.75;100.00;101536.34;12900792;22;20007;-86
2022/10/17 02:45:10;;;;;;;18.88;10.15;;;;;;;11.40;100.00;101607.03;12881002;22;20068;-84
2022/10/17 02:50:11;;;;;;;16.02;9.95;;;;;;;10.29;100.00;101465.38;12920396;22;20070;-84
2022/10/17 02:55:23;;;;;;;17.58;11.13;;;;;;;10.36;100.00;101500.22;12922880;22;20019;-84
2022/10/17 03:00:24;;;;;;;19.98;11.65;;;;;;;10.71;100.00;101563.56;12905977;22;20041;-85
2022/10/17 03:05:26;;;;;;;17.50;10.57;;;;;;;9.99;100.00;101459.91;12931124;22;20039;-86
2022/10/17 03:10:27;;;;;;;23.73;11.13;;;;;;;10.61;100.00;101531.09;12953561;22;20342;-85
2022/10/17 03:15:27;;;;;;;21.92;11.52;;;;;;;10.34;100.00;101513.38;12931034;22;20015;-85
2022/10/17 03:20:28;;;;;;;17.30;12.00;;;;;;;10.50;100.00;101548.47;12902588;22;20007;-84
2022/10/17 03:25:29;;;;;;;17.90;13.00;;;;;;;10.46;100.00;101544.50;12907332;22;20024;-84
2022/10/17 03:30:29;;;;;;;15.90;11.75;;;;;;;10.41;100.00;101544.34;12905161;22;20039;-84
2022/10/17 03:35:30;;;;;;;19.13;11.63;;;;;;;10.94;100.00;101609.56;12907431;22;20008;-84
2022/10/17 03:40:30;;;;;;;22.00;13.57;;;;;;;9.89;100.00;101460.47;12907344;22;20018;-83
2022/10/17 03:45:31;;;;;;;21.23;13.65;;;;;;;10.24;100.00;101492.72;12904882;22;20027;-84
2022/10/17 03:50:32;;;;;;;19.77;13.95;;;;;;;9.58;100.00;101401.09;12930123;22;20105;-84
2022/10/17 03:55:32;;;;;;;16.63;13.55;;;;;;;9.34;100.00;101378.19;12906391;22;21007;-87
2022/10/17 04:00:35;;;;;;;19.60;13.93;;;;;;;8.87;100.00;101309.38;12907887;22;20414;-84
2022/10/17 04:05:35;;;;;;;23.58;14.32;;;;;;;9.30;100.00;101404.47;12929691;22;20341;-87
2022/10/17 04:10:36;;;;;;;22.40;16.27;;;;;;;10.66;100.00;101616.56;12905578;22;20046;-86
2022/10/17 04:15:36;;;;;;;18.30;15.77;;;;;;;8.83;100.00;101330.97;12902428;22;20010;-84
2022/10/17 04:20:37;;;;;;;26.45;16.20;;;;;;;9.74;100.00;101471.09;12899680;22;20011;-84
2022/10/17 04:25:38;;;;;;;22.25;17.30;;;;;;;9.45;100.00;101391.16;12909183;22;20016;-83
2022/10/17 04:30:39;;;;;;;27.00;16.92;;;;;;;10.95;100.00;101589.19;12896393;22;20031;-84
2022/10/17 04:35:39;;;;;;;22.20;17.08;;;;;;;11.08;100.00;101585.38;12894180;22;20395;-85
2022/10/17 04:40:40;;;;;;;25.98;17.83;;;;;;;10.65;100.00;101515.78;12905050;22;20003;-84
2022/10/17 04:45:40;;;;;;;25.45;17.58;;;;;;;10.57;100.00;101452.81;12920911;22;20342;-84
2022/10/17 04:50:41;;;;;;;25.67;17.80;;;;;;;10.26;100.00;101391.50;12897450;22;20326;-84
2022/10/17 04:55:42;;;;;;;23.27;18.20;;;;;;;11.68;100.00;101589.69;12918963;22;20489;-86
2022/10/17 05:00:42;;;;;;;28.15;18.48;;;;;;;10.89;100.00;101467.03;12900874;22;20352;-86
2022/10/17 05:05:43;;;;;;;26.58;18.20;;;;;;;11.15;100.00;101470.31;12922072;22;20334;-85
2022/10/17 05:10:44;;;;;;;25.27;18.33;;;;;;;12.14;100.00;101587.03;12896025;22;20454;-85
2022/10/17 05:15:45;;;;;;;25.15;18.30;;;;;;;10.89;100.00;101409.19;12920049;22;20012;-84
2022/10/17 05:20:46;;;;;;;26.83;18.38;;;;;;;11.81;100.00;101548.03;12918804;22;20371;-85
2022/10/17 05:25:46;;;;;;;29.60;18.55;;;;;;;11.46;100.00;101466.25;12894128;22;20011;-86
2022/10/17 05:30:47;;;;;;;21.85;16.70;;;;;;;11.66;100.00;101520.16;12896036;22;20026;-85
2022/10/17 05:35:48;;;;;;;24.48;18.65;;;;;;;11.54;100.00;101513.84;12895511;22;20091;-84
2022/10/17 05:40:48;;;;;;;26.05;18.63;;;;;;;11.14;100.00;101409.94;12899593;22;20014;-86
2022/10/17 05:45:49;;;;;;;28.52;18.27;;;;;;;11.11;100.00;101436.06;12928615;22;20103;-87
2022/10/17 05:50:56;;;;;;;27.30;17.65;;;;;;;11.10;100.00;101398.59;12892908;22;20018;-87
2022/10/17 05:55:58;;;;;;;27.02;18.63;;;;;;;11.79;100.00;101547.44;12890558;22;20004;-87
2022/10/17 06:00:59;;;;;;;31.30;19.17;;;;;;;11.61;100.00;101539.34;12889252;22;20007;-87
2022/10/17 06:06:10;;;;;;;28.42;19.48;;;;;;;12.23;100.00;101638.81;12889417;22;20509;-87
2022/10/17 06:11:11;;;;;;;28.90;19.08;;;;;;;11.37;100.00;101487.03;12914648;22;20406;-87
2022/10/17 06:16:11;;;;;;;27.08;18.55;;;;;;;12.11;100.00;101591.09;12888959;22;20141;-87
2022/10/17 06:21:14;;;;;;;30.25;19.27;;;;;;;12.34;100.00;101626.06;12913290;22;20428;-87
2022/10/17 06:26:14;;;;;;;37.63;23.70;;;;;;;12.50;100.00;101636.28;12939179;22;20012;-87
2022/10/17 06:31:15;;;;;;;28.95;20.30;;;;;;;12.03;100.00;101530.78;12912879;22;20039;-87
2022/10/17 06:36:16;;;;;;;33.13;20.67;;;;;;;11.39;100.00;101415.09;12888276;22;20011;-87
2022/10/17 06:41:18;;;;;;;39.90;21.88;;;;;;;11.91;100.00;101497.75;12888152;22;20007;-87
2022/10/17 06:46:18;;;;;;;31.20;20.88;;;;;;;12.40;100.00;101569.84;12888564;22;20015;-87
2022/10/17 06:51:19;;;;;;;30.60;19.85;;;;;;;12.48;100.00;101588.75;12914032;22;20113;-87
2022/10/17 06:56:19;;;;;;;34.38;21.98;;;;;;;11.93;100.00;101480.94;12889144;22;24992;-87
2022/10/17 07:01:20;;;;;;;32.50;21.75;;;;;;;13.16;100.00;101659.78;12913953;22;20413;-87
2022/10/17 07:06:23;;;;;;;34.15;21.15;;;;;;;12.42;100.00;101525.41;12888973;22;20016;-87
2022/10/17 07:11:24;;;;;;;30.67;20.13;;;;;;;12.93;100.00;101575.94;12888889;22;20015;-88
2022/10/17 07:16:25;;;;;;;30.67;20.42;;;;;;;13.02;100.00;101591.03;12914248;22;20007;-87
2022/10/17 07:21:25;;;;;;;29.55;19.35;;;;;;;12.10;100.00;101379.69;12888214;22;20023;-87
2022/10/17 07:26:26;;;;;;;25.05;18.08;;;;;;;13.06;100.00;101527.75;12913464;22;20015;-87
2022/10/17 07:31:26;;;;;;;28.23;18.80;;;;;;;13.37;100.00;101562.22;12887825;22;20322;-87
2022/10/17 07:36:27;;;;;;;22.52;16.80;;;;;;;13.29;100.00;101533.09;12887795;22;20003;-87
2022/10/17 07:41:27;;;;;;;23.63;15.63;;;;;;;13.81;100.00;101597.34;12889149;22;20019;-87
2022/10/17 07:46:28;;;;;;;22.40;15.68;;;;;;;13.64;100.00;101533.78;12891306;22;20035;-91
2022/10/17 07:51:28;;;;;;;22.17;15.18;;;;;;;13.76;100.00;101530.88;12875429;22;20095;-87
2022/10/17 07:56:32;;;;;;;20.00;14.23;;;;;;;13.80;100.00;101521.78;12891976;22;20004;-86
2022/10/17 08:01:32;;;;;;;19.25;12.13;;;;;;;13.99;100.00;101563.78;12891625;22;20010;-86
2022/10/17 08:06:33;;;;;;;18.13;12.95;;;;;;;13.19;100.00;101391.06;12915647;22;20015;-88
2022/10/17 08:11:35;;;;;;;17.80;12.20;;;;;;;15.03;100.00;101693.94;12880224;22;20373;-88
2022/10/17 08:16:36;;;;;;;14.20;11.30;;;;;;;14.48;100.00;101543.50;12916590;22;20449;-88
2022/10/17 08:21:36;;;;;;;17.25;11.15;;;;;;;14.83;100.00;101616.97;12891749;22;20023;-87
2022/10/17 08:26:37;;;;;;;17.20;10.32;;;;;;;14.79;100.00;101574.25;12889499;22;20026;-88
2022/10/17 08:31:37;;;;;;;14.98;10.32;;;;;;;14.58;100.00;101448.56;12879105;22;20325;-89
2022/10/17 08:36:38;;;;;;;17.65;10.02;;;;;;;15.21;100.00;101506.84;12888747;22;20055;-87
2022/10/17 08:41:44;;;;;;;11.88;9.88;;;;;;;16.32;100.00;101651.94;12888082;22;20338;-87
2022/10/17 08:46:46;;;;;;;15.80;9.52;;;;;;;15.66;100.00;101552.53;12938172;22;20023;-87
2022/10/17 08:51:54;;;;;;;17.20;9.32;;;;;;;15.91;100.00;101605.41;12889247;22;20012;-87
2022/10/17 08:56:54;;;;;;;13.15;8.85;;;;;;;14.94;100.00;101441.25;12889809;22;20012;-87
2022/10/17 09:02:10;;;;;;;11.40;8.23;;;;;;;16.53;100.00;101689.75;12887505;22;20000;-87
2022/10/17 09:07:26;;;;;;;12.68;8.50;;;;;;;15.44;100.00;101505.56;12937895;22;20024;-87
2022/10/17 09:12:36;;;;;;;9.73;7.45;;;;;;;16.72;100.00;101670.63;12915493;22;20015;-87
2022/10/17 09:17:52;;;;;;;13.85;7.88;;;;;;;15.25;100.00;101435.84;12913181;22;19996;-87
2022/10/17 09:22:58;;;;;;;13.02;7.93;;;;;;;16.22;100.00;101616.59;12889801;22;20015;-87
2022/10/17 09:28:18;;;;;;;10.80;7.28;;;;;;;16.92;100.00;101738.53;12914127;22;20035;-86
2022/10/17 09:33:23;;;;;;;13.10;7.00;;;;;;;16.36;100.00;101735.59;12913545;22;20030;-87
2022/10/17 09:38:26;;;;;;;10.55;8.32;;;;;;;15.39;100.00;101556.31;12914326;22;20008;-88
2022/10/17 09:43:27;;;;;;;10.73;7.80;;;;;;;15.70;100.00;101636.94;12888938;22;20082;-87
2022/10/17 09:48:37;;;;;;;12.80;7.50;;;;;;;16.84;100.00;101819.72;12913693;22;20066;-86
2022/10/17 09:53:39;;;;;;;11.75;7.70;;;;;;;15.70;100.00;101648.88;12913575;22;20000;-87
2022/10/17 09:58:44;;;;;;;10.85;8.10;;;;;;;16.13;100.00;101715.50;12912877;22;20311;-87
2022/10/17 10:03:45;;;;;;;9.25;7.53;;;;;;;16.10;100.00;101716.00;12889161;22;20012;-87
2022/10/17 10:08:57;;;;;;;15.60;8.13;;;;;;;16.41;100.00;101752.25;12913529;22;20016;-87
2022/10/17 10:13:57;;;;;;;10.55;8.15;;;;;;;15.96;100.00;101690.69;12914108;22;20063;-86
2022/10/17 10:18:58;;;;;;;13.57;8.40;;;;;;;16.00;100.00;101707.63;12872202;22;19999;-86
2022/10/17 10:24:03;;;;;;;13.65;8.85;;;;;;;16.48;100.00;101775.09;12896481;22;20019;-86
2022/10/17 10:29:37;;;;;;;10.90;8.90;;;;;;;15.33;100.00;101641.44;12920812;22;20372;-85
2022/10/17 10:34:55;;;;;;;19.02;10.40;;;;;;;15.62;100.00;101690.19;12894877;22;20011;-86
2022/10/17 10:39:59;;;;;;;13.85;10.60;;;;;;;15.13;100.00;101622.75;12893337;22;20016;-86
2022/10/17 10:45:17;;;;;;;16.38;10.18;;;;;;;15.23;100.00;101676.63;12889008;22;20020;-86
2022/10/17 10:50:27;;;;;;;16.52;10.75;;;;;;;16.20;100.00;101857.75;12886899;22;19996;-85
2022/10/17 10:55:30;;;;;;;15.63;12.00;;;;;;;14.55;100.00;101627.22;12939796;22;20016;-88
2022/10/17 11:00:31;;;;;;;16.85;13.05;;;;;;;14.86;100.00;101700.47;12888130;22;20014;-86
2022/10/17 11:05:55;;;;;;;25.42;13.60;;;;;;;14.78;100.00;101725.88;12888050;22;20386;-87
2022/10/17 11:11:24;;;;;;;21.15;14.10;;;;;;;14.27;100.00;101617.25;12888707;22;20393;-89
2022/10/17 11:16:33;;;;;;;25.02;15.00;;;;;;;15.93;100.00;101863.41;12914925;22;20011;-85
2022/10/17 11:21:47;;;;;;;22.65;15.52;;;;;;;15.16;100.00;101753.69;12917773;22;20050;-88
2022/10/17 11:27:04;;;;;;;26.42;17.10;;;;;;;15.43;100.00;101761.94;12892673;22;20030;-85
2022/10/17 11:32:29;;;;;;;;;;;;;;;16.08;100.00;101827.41;12895713;22;20011;-85
2022/10/17 11:37:37;;;;;;;24.85;15.55;;;;;;;15.03;100.00;101741.09;12953576;22;19900;-85
2022/10/17 11:42:50;;;;;;;23.30;15.65;;;;;;;15.54;100.00;101844.19;12916823;22;20011;-86
2022/10/17 11:47:57;;;;;;;23.85;16.73;;;;;;;15.32;100.00;101827.63;12892899;22;20020;-86
2022/10/17 11:53:08;;;;;;;25.83;17.30;;;;;;;14.97;100.00;101751.28;12915099;22;20426;-88
2022/10/17 11:58:22;;;;;;;26.42;18.25;;;;;;;15.98;100.00;101938.44;12889742;22;20010;-88
2022/10/17 12:03:39;;;;;;;29.95;19.00;;;;;;;14.80;100.00;101795.75;12916117;22;20003;-87
2022/10/17 12:08:43;;;;;;;33.47;19.02;;;;;;;15.23;100.00;101882.72;12918378;22;20094;-88
2022/10/17 12:13:47;;;;;;;33.95;21.27;;;;;;;15.41;100.00;101873.19;12918242;22;20075;-88
2022/10/17 12:19:10;;;;;;;29.90;18.90;;;;;;;15.01;100.00;101857.81;12890249;22;20326;-85
2022/10/17 12:24:23;;;;;;;32.05;20.73;;;;;;;14.33;100.00;101747.22;12895097;22;20039;-88
2022/10/17 12:29:27;;;;;;;32.80;19.25;;;;;;;14.26;100.00;101727.22;12892907;22;20418;-88
2022/10/17 12:34:28;;;;;;;23.13;17.02;;;;;;;16.12;100.00;101994.38;12894159;22;20029;-86
2022/10/17 12:39:28;;;;;;;22.88;15.07;;;;;;;16.07;100.00;101963.78;12906531;22;20011;-87
2022/10/17 12:44:29;;;;;;;18.35;13.25;;;;;;;16.39;100.00;101988.78;12940992;22;20454;-86
2022/10/17 12:49:38;;;;;;;19.75;14.30;;;;;;;16.41;100.00;101963.50;12941827;22;20448;-85
2022/10/17 12:54:44;;;;;;;19.50;13.55;;;;;;;15.26;100.00;101773.19;12941547;22;20467;-87
2022/10/17 12:59:44;;;;;;;15.70;11.38;;;;;;;15.66;100.00;101855.94;12889354;22;20441;-87
2022/10/17 13:04:45;;;;;;;15.82;10.50;;;;;;;15.99;100.00;101892.06;12885836;22;20046;-86
2022/10/17 13:09:46;;;;;;;15.75;9.88;;;;;;;15.61;100.00;101874.50;12912091;22;20324;-88
2022/10/17 13:14:46;;;;;;;13.73;10.07;;;;;;;15.90;100.00;101920.31;12864672;22;20375;-86
2022/10/17 13:19:47;;;;;;;14.35;11.10;;;;;;;16.30;100.00;101971.75;12884810;22;20322;-87
2022/10/17 13:24:48;;;;;;;15.45;10.98;;;;;;;15.25;100.00;101829.75;12915704;22;20019;-86
2022/10/17 13:29:49;;;;;;;16.05;11.23;;;;;;;14.83;100.00;101778.59;12888170;22;20078;-88
2022/10/17 13:35:06;;;;;;;15.43;11.23;;;;;;;15.02;100.00;101853.09;12887634;22;20004;-88
2022/10/17 13:40:18;;;;;;;10.73;6.80;;;;;;;15.25;100.00;101918.53;12888894;22;20034;-90
2022/10/17 13:45:29;;;;;;;6.97;4.60;;;;;;;13.81;100.00;101753.19;12886643;22;20015;-88
2022/10/17 13:50:33;;;;;;;9.25;5.15;;;;;;;14.80;100.00;101908.56;12889218;22;20010;-88
2022/10/17 13:55:34;;;;;;;10.10;4.50;;;;;;;14.61;100.00;101931.03;12894612;22;20000;-87
2022/10/17 14:00:35;;;;;;;11.20;5.40;;;;;;;13.89;100.00;101852.41;12913683;22;20442;-89
2022/10/17 14:05:56;;;;;;;7.53;5.57;;;;;;;12.98;100.00;101752.94;12911008;22;20377;-89
2022/10/17 14:10:57;;;;;;;11.07;6.63;;;;;;;14.33;100.00;101935.59;12917879;22;20031;-89
2022/10/17 14:15:59;;;;;;;13.07;6.88;;;;;;;14.65;100.00;101995.94;12887983;22;20035;-86
2022/10/17 14:20:59;;;;;;;8.30;6.13;;;;;;;14.25;100.00;101916.63;12913832;22;20020;-88
2022/10/17 14:26:10;;;;;;;11.85;8.38;;;;;;;14.54;100.00;101983.00;12886477;22;20031;-88
2022/10/17 14:31:24;;;;;;;13.98;9.32;;;;;;;14.36;100.00;101974.97;12912410;22;20004;-88
2022/10/17 14:36:30;;;;;;;12.35;8.70;;;;;;;14.46;100.00;102016.69;12873270;22;20023;-90
2022/10/17 14:41:32;;;;;;;11.45;6.30;;;;;;;13.41;100.00;101889.75;12899648;22;20007;-88
2022/10/17 14:46:33;;;;;;;16.00;8.93;;;;;;;14.04;100.00;101961.72;12890629;22;20027;-89
2022/10/17 14:51:35;;;;;;;13.98;7.65;;;;;;;15.16;100.00;102144.78;12893106;22;20075;-88
2022/10/17 14:56:40;;;;;;;9.60;4.85;;;;;;;14.11;100.00;101981.78;12891713;22;20087;-89
2022/10/17 15:01:41;;;;;;;9.25;5.40;;;;;;;13.11;100.00;101818.94;12877578;22;20346;-89
2022/10/17 15:06:41;;;;;;;6.38;4.15;;;;;;;14.13;100.00;102037.75;12885218;22;20028;-87
2022/10/17 15:11:42;;;;;;;8.85;5.05;;;;;;;13.28;100.00;101901.09;12872746;22;20012;-91
2022/10/17 15:16:42;;;;;;;9.02;4.82;;;;;;;13.54;100.00;101938.44;12877385;22;20441;-92
2022/10/17 15:21:43;;;;;;;7.72;4.97;;;;;;;13.60;100.00;101961.47;12877051;22;20000;-92
2022/10/17 15:26:43;;;;;;;7.32;4.40;;;;;;;14.22;100.00;102076.94;12889191;22;20135;-89
2022/10/17 15:31:44;;;;;;;3.78;3.22;;;;;;;13.57;100.00;101959.22;12858633;22;20004;-89
2022/10/17 15:36:49;;;;;;;6.10;3.22;;;;;;;13.15;100.00;101927.13;12869881;22;20453;-88
2022/10/17 15:41:49;;;;;;;4.53;3.40;;;;;;;14.03;100.00;102045.88;12885826;22;21007;-89
2022/10/17 15:46:50;;;;;;;7.60;5.22;;;;;;;14.14;100.00;102094.81;12885112;22;20103;-88
2022/10/17 15:51:51;;;;;;;7.28;5.03;;;;;;;14.03;100.00;102051.41;12910872;22;20031;-88
2022/10/17 15:56:52;;;;;;;9.18;4.75;;;;;;;13.61;100.00;102007.44;12887713;22;20008;-88
2022/10/17 16:01:53;;;;;;;10.20;4.18;;;;;;;14.21;100.00;102109.34;12881222;22;20007;-88
2022/10/17 16:06:53;;;;;;;6.97;4.13;;;;;;;12.98;100.00;101928.97;12895980;22;20027;-88
2022/10/17 16:11:54;;;;;;;4.45;3.10;;;;;;;12.98;100.00;101935.38;12905480;22;20015;-89
2022/10/17 16:16:54;;;;;;;7.07;3.60;;;;;;;13.08;100.00;102004.69;12890518;22;20092;-89
2022/10/17 16:21:56;;;;;;;4.88;4.13;;;;;;;13.00;100.00;102005.06;12893178;22;20007;-88
2022/10/17 16:26:56;;;;;;;7.85;4.00;;;;;;;13.05;100.00;102010.69;12892027;22;20012;-87
2022/10/17 16:31:57;;;;;;;6.63;3.97;;;;;;;13.25;100.00;102059.22;12915665;22;20007;-89
2022/10/17 16:36:57;;;;;;;8.52;4.03;;;;;;;13.20;100.00;102064.66;12883993;22;20004;-88
2022/10/17 16:41:58;;;;;;;9.60;4.65;;;;;;;13.13;100.00;102079.44;12915940;22;20008;-88
2022/10/17 16:46:58;;;;;;;5.72;3.53;;;;;;;13.40;100.00;102148.13;12889417;22;20016;-88
2022/10/17 16:51:59;;;;;;;8.38;4.57;;;;;;;12.90;100.00;102098.81;12890698;22;20004;-87
2022/10/17 16:57:00;;;;;;;9.25;4.90;;;;;;;13.38;100.00;102182.63;12916136;22;20008;-87
2022/10/17 17:02:01;;;;;;;17.05;6.80;;;;;;;13.22;100.00;102192.47;12888640;22;19999;-87
2022/10/17 17:07:01;;;;;;;6.80;5.47;;;;;;;11.81;100.00;101964.63;12893252;22;20431;-89
2022/10/17 17:12:02;;;;;;;12.20;6.43;;;;;;;12.52;100.00;102081.59;12896974;22;20007;-88
2022/10/17 17:17:02;;;;;;;11.35;7.03;;;;;;;13.17;100.00;102203.38;12894171;22;20133;-89
2022/10/17 17:22:03;;;;;;;11.90;7.28;;;;;;;12.38;100.00;102068.22;12894316;22;20004;-89
2022/10/17 17:27:04;;;;;;;13.10;8.57;;;;;;;12.32;100.00;102059.00;12901585;22;20019;-88
2022/10/17 17:32:04;;;;;;;15.70;9.45;;;;;;;11.94;100.00;102001.41;12894448;22;20046;-88
2022/10/17 17:37:05;;;;;;;17.02;9.75;;;;;;;12.39;100.00;102076.28;12879598;22;19999;-88
2022/10/17 17:42:05;;;;;;;18.80;10.57;;;;;;;12.35;100.00;102074.25;12891290;22;20004;-88
2022/10/17 17:47:06;;;;;;;18.05;12.15;;;;;;;12.76;100.00;102164.53;12918666;22;20020;-88
2022/10/17 17:52:07;;;;;;;20.27;12.00;;;;;;;12.32;100.00;102101.25;12876452;22;20003;-88
2022/10/17 17:57:07;;;;;;;21.95;13.18;;;;;;;13.59;100.00;102303.75;12914983;22;20023;-88
2022/10/17 18:02:09;;;;;;;24.98;12.82;;;;;;;12.82;100.00;102182.09;12891187;22;20054;-86
2022/10/17 18:07:10;;;;;;;25.73;13.77;;;;;;;12.80;100.00;102203.59;12889150;22;20073;-87
2022/10/17 18:12:10;;;;;;;24.67;14.35;;;;;;;13.06;100.00;102247.41;12888943;22;20020;-88
2022/10/17 18:17:11;;;;;;;25.77;14.80;;;;;;;12.30;100.00;102089.59;12914807;22;20075;-89
2022/10/17 18:22:11;;;;;;;28.13;15.95;;;;;;;12.17;100.00;102100.00;12866316;22;20057;-89
2022/10/17 18:27:14;;;;;;;29.00;17.80;;;;;;;13.19;100.00;102287.81;12888724;22;20034;-88
2022/10/17 18:32:15;;;;;;;28.58;15.48;;;;;;;12.89;100.00;102274.00;12901523;22;20004;-88
2022/10/17 18:37:15;;;;;;;34.83;17.98;;;;;;;12.45;100.00;102162.88;12877088;22;20015;-89
2022/10/17 18:42:17;;;;;;;33.13;16.60;;;;;;;13.12;100.00;102267.69;12894405;22;20007;-89
2022/10/17 18:47:17;;;;;;;34.20;19.23;;;;;;;12.65;100.00;102201.25;12919820;22;20012;-87
2022/10/17 18:52:18;;;;;;;33.85;18.33;;;;;;;12.10;100.00;102083.53;12882630;22;20015;-88
2022/10/17 18:57:18;;;;;;;37.35;20.17;;;;;;;12.44;100.00;102180.53;12921245;22;20133;-88
2022/10/17 19:02:19;;;;;;;35.50;20.67;;;;;;;12.98;100.00;102283.69;12892436;22;20004;-88
2022/10/17 19:07:20;;;;;;;42.28;22.02;;;;;;;12.66;100.00;102269.25;12891450;22;20020;-88
2022/10/17 19:12:20;;;;;;;40.92;22.95;;;;;;;12.77;100.00;102273.13;12916398;22;20008;-88
2022/10/17 19:17:21;;;;;;;43.25;23.70;;;;;;;11.74;100.00;102134.94;12882491;22;20429;-90
2022/10/17 19:22:21;;;;;;;44.92;23.30;;;;;;;12.50;100.00;102248.66;12917533;22;20000;-90
2022/10/17 19:27:22;;;;;;;48.80;24.25;;;;;;;12.52;100.00;102257.53;12903686;22;20348;-87
2022/10/17 19:32:22;;;;;;;51.60;25.08;;;;;;;12.61;100.00;102289.31;12936239;22;20000;-89
2022/10/17 19:37:23;;;;;;;61.92;26.38;;;;;;;13.27;100.00;102452.53;12912732;22;20060;-88
2022/10/17 19:42:24;;;;;;;68.40;27.40;;;;;;;12.00;100.00;102237.81;12886697;22;20011;-87
2022/10/17 19:47:24;;;;;;;70.15;27.95;;;;;;;11.82;100.00;102214.63;12884468;22;20069;-88
2022/10/17 19:52:26;;;;;;;61.53;29.92;;;;;;;12.21;100.00;102292.56;12897199;22;20338;-87
2022/10/17 19:57:26;;;;;;;64.80;29.55;;;;;;;13.10;100.00;102450.44;12870491;22;20011;-88
2022/10/17 20:02:27;;;;;;;77.95;32.28;;;;;;;12.57;100.00;102359.03;12885042;22;20441;-87
2022/10/17 20:07:28;;;;;;;77.70;33.00;;;;;;;12.39;100.00;102324.00;12897180;22;20015;-88
2022/10/17 20:12:28;;;;;;;79.90;34.63;;;;;;;13.06;100.00;102424.34;12899313;22;20168;-88
2022/10/17 20:17:29;;;;;;;97.00;38.88;;;;;;;11.43;100.00;102200.22;12884108;22;20004;-91
2022/10/17 20:22:29;;;;;;;114.43;41.03;;;;;;;12.13;100.00;102314.94;12900241;22;20004;-89
2022/10/17 20:27:30;;;;;;;124.75;42.63;;;;;;;11.67;100.00;102214.19;12884150;22;20028;-88
2022/10/17 20:32:33;;;;;;;116.20;43.50;;;;;;;11.25;100.00;102154.16;12889956;22;19999;-89
2022/10/17 20:37:34;;;;;;;119.93;44.90;;;;;;;12.60;100.00;102392.59;12910991;22;20015;-89
2022/10/17 20:42:35;;;;;;;123.18;50.38;;;;;;;11.39;100.00;102212.78;12896296;22;20008;-88
2022/10/17 20:47:36;;;;;;;133.68;47.63;;;;;;;12.21;100.00;102339.50;12894902;22;20754;-88
2022/10/17 20:52:39;;;;;;;137.60;49.97;;;;;;;11.65;100.00;102224.59;12895079;22;20080;-89
2022/10/17 20:57:39;;;;;;;125.90;48.28;;;;;;;12.81;100.00;102442.94;12943219;22;20000;-87
2022/10/17 21:02:43;;;;;;;160.00;52.40;;;;;;;11.74;100.00;102272.91;12893063;22;20417;-87
2022/10/17 21:07:44;;;;;;;125.32;47.95;;;;;;;12.37;100.00;102351.84;12921503;22;20027;-86
2022/10/17 21:12:44;;;;;;;125.38;48.00;;;;;;;11.79;100.00;102286.84;12893022;22;20087;-86
2022/10/17 21:17:45;;;;;;;136.32;48.97;;;;;;;11.63;100.00;102274.47;12905768;22;20107;-87
2022/10/17 21:22:45;;;;;;;114.55;46.33;;;;;;;11.55;100.00;102280.28;12917172;22;20016;-87
2022/10/17 21:27:46;;;;;;;133.00;48.95;;;;;;;11.70;100.00;102288.22;12878069;22;20098;-88
2022/10/17 21:32:47;;;;;;;152.88;48.53;;;;;;;10.85;100.00;102162.81;12879198;22;20015;-88
2022/10/17 21:37:47;;;;;;;122.85;47.42;;;;;;;12.04;100.00;102338.41;12881593;22;20049;-87
2022/10/17 21:42:48;;;;;;;134.05;47.88;;;;;;;12.20;100.00;102387.53;12891119;22;20061;-87
2022/10/17 21:47:48;;;;;;;122.45;46.70;;;;;;;12.76;100.00;102434.50;12894479;22;20035;-88
2022/10/17 21:52:49;;;;;;;123.82;49.17;;;;;;;12.15;100.00;102337.66;12895258;22;20003;-88
2022/10/17 21:57:50;;;;;;;120.70;46.38;;;;;;;12.59;100.00;102385.41;12891124;22;20018;-86
2022/10/17 22:02:50;;;;;;;148.50;50.60;;;;;;;12.17;100.00;102374.16;12917015;22;20054;-86
2022/10/17 22:07:51;;;;;;;150.48;52.97;;;;;;;11.57;100.00;102304.88;12918322;22;20023;-86
2022/10/17 22:12:51;;;;;;;159.85;50.78;;;;;;;12.94;100.00;102520.19;12869890;22;20339;-87
2022/10/17 22:17:52;;;;;;;155.63;51.53;;;;;;;11.57;100.00;102332.47;12875614;22;20004;-87
2022/10/17 22:22:53;;;;;;;164.07;53.97;;;;;;;11.63;100.00;102339.84;12868124;22;20023;-92
2022/10/17 22:27:53;;;;;;;150.50;52.35;;;;;;;10.85;100.00;102285.91;12875221;22;20047;-88
2022/10/17 22:32:54;;;;;;;199.55;53.40;;;;;;;11.80;100.00;102456.88;12875087;22;20089;-88